createdAt,value
2023-03-08T00:03:37.524Z,0.36
2023-03-08T00:07:39.566Z,0.46
2023-03-08T00:11:41.562Z,0.35
2023-03-08T00:15:44.378Z,0.26
2023-03-08T00:19:46.421Z,0.29
2023-03-08T00:23:51.374Z,0.25
2023-03-08T00:27:53.448Z,0.23
2023-03-08T00:31:56.716Z,0.24
2023-03-08T00:36:01.171Z,0.26
2023-03-08T00:40:05.805Z,0.18
2023-03-08T00:44:10.242Z,0.24
2023-03-08T00:48:12.599Z,0.07
2023-03-08T00:52:14.395Z,0.29
2023-03-08T00:56:16.468Z,0.22
2023-03-08T01:00:18.741Z,0.16
2023-03-08T01:04:20.782Z,0.15
2023-03-08T01:08:25.007Z,0.17
2023-03-08T01:12:27.290Z,0.11
2023-03-08T01:16:31.411Z,0.17
2023-03-08T01:20:34.145Z,0.03
2023-03-08T01:24:39.658Z,0.04
2023-03-08T01:28:42.478Z,-0.03
2023-03-08T01:32:44.747Z,0.02
2023-03-08T01:36:46.996Z,0.03
2023-03-08T01:40:59.671Z,-0.07
2023-03-08T01:45:05.796Z,-0.14
2023-03-08T01:49:17.533Z,-0.20
2023-03-08T01:53:19.870Z,-0.15
2023-03-08T01:57:25.980Z,-0.21
2023-03-08T02:01:28.350Z,-0.29
2023-03-08T02:05:33.496Z,-0.21
2023-03-08T02:09:44.141Z,-0.30
2023-03-08T02:13:47.349Z,-0.25
2023-03-08T02:17:49.771Z,-0.28
2023-03-08T02:21:51.939Z,-0.31
2023-03-08T02:25:57.520Z,-0.35
2023-03-08T02:29:59.448Z,-0.25
2023-03-08T02:34:01.628Z,-0.26
2023-03-08T02:38:03.682Z,-0.29
2023-03-08T02:42:07.190Z,-0.19
2023-03-08T02:46:13.821Z,-0.12
2023-03-08T02:50:16.198Z,-0.15
2023-03-08T02:54:18.174Z,-0.02
2023-03-08T02:58:20.311Z,-0.03
2023-03-08T03:02:22.271Z,0.00
2023-03-08T03:06:24.146Z,-0.08
2023-03-08T03:10:30.054Z,0.07
2023-03-08T03:14:32.593Z,-0.07
2023-03-08T03:18:35.908Z,-0.02
2023-03-08T03:22:38.144Z,0.14
2023-03-08T03:26:42.095Z,0.12
2023-03-08T03:30:44.696Z,0.16
2023-03-08T03:34:49.195Z,0.12
2023-03-08T03:38:55.078Z,0.15
2023-03-08T03:42:57.978Z,0.18
2023-03-08T03:47:00.125Z,0.30
2023-03-08T03:51:10.420Z,0.34
2023-03-08T03:55:13.715Z,0.41
2023-03-08T03:59:16.287Z,0.40
2023-03-08T04:03:18.944Z,0.38
2023-03-08T04:07:21.984Z,0.46
2023-03-08T04:11:36.886Z,0.40
2023-03-08T04:15:40.182Z,0.36
2023-03-08T04:19:49.192Z,0.38
2023-03-08T04:23:52.721Z,0.52
2023-03-08T04:27:55.430Z,0.42
2023-03-08T04:32:00.314Z,0.50
2023-03-08T04:36:10.008Z,0.30
2023-03-08T04:40:13.263Z,0.28
2023-03-08T04:44:26.118Z,0.34
2023-03-08T04:48:29.002Z,0.27
2023-03-08T04:52:31.277Z,0.20
2023-03-08T04:56:33.156Z,0.35
2023-03-08T05:00:35.855Z,0.30
2023-03-08T05:04:38.779Z,0.28
2023-03-08T05:08:41.955Z,0.30
2023-03-08T05:12:44.254Z,0.22
2023-03-08T05:16:46.395Z,0.35
2023-03-08T05:20:59.715Z,0.41
2023-03-08T05:25:02.497Z,0.44
2023-03-08T05:29:06.375Z,0.46
2023-03-08T05:33:09.117Z,0.51
2023-03-08T05:37:11.322Z,0.57
2023-03-08T05:41:16.808Z,0.55
2023-03-08T05:45:23.222Z,0.51
2023-03-08T05:49:25.538Z,0.53
2023-03-08T05:53:27.787Z,0.53
2023-03-08T05:57:30.063Z,0.48
2023-03-08T06:01:32.196Z,0.46
2023-03-08T06:05:46.813Z,0.60
2023-03-08T06:09:48.978Z,0.48
2023-03-08T06:13:53.404Z,0.39
2023-03-08T06:17:58.242Z,0.37
2023-03-08T06:22:01.760Z,0.35
2023-03-08T06:26:06.209Z,0.35
2023-03-08T06:30:11.025Z,0.40
2023-03-08T06:34:13.499Z,0.45
2023-03-08T06:38:16.830Z,0.54
2023-03-08T06:42:20.997Z,0.58
2023-03-08T06:46:28.121Z,0.64
2023-03-08T06:50:30.337Z,0.70
2023-03-08T06:54:33.714Z,0.69
2023-03-08T06:58:38.768Z,0.85
2023-03-08T07:02:41.134Z,1.01
2023-03-08T07:06:43.839Z,0.87
2023-03-08T07:10:45.752Z,1.08
2023-03-08T07:14:48.061Z,1.10
2023-03-08T07:18:50.257Z,1.03
2023-03-08T07:22:52.772Z,0.86
2023-03-08T07:26:54.845Z,0.83
2023-03-08T07:30:56.969Z,1.35
2023-03-08T07:34:59.022Z,1.53
2023-03-08T07:39:01.152Z,1.71
2023-03-08T07:43:03.753Z,1.45
2023-03-08T07:47:23.497Z,1.54
2023-03-08T07:51:25.712Z,1.59
2023-03-08T07:55:28.362Z,1.96
2023-03-08T07:59:30.620Z,1.92
2023-03-08T08:03:32.768Z,1.63
2023-03-08T08:07:34.998Z,1.66
2023-03-08T08:11:37.515Z,1.80
2023-03-08T08:15:39.549Z,1.66
2023-03-08T08:19:41.779Z,1.58
2023-03-08T08:23:44.071Z,1.91
2023-03-08T08:27:46.654Z,2.08
2023-03-08T08:31:48.855Z,2.30
2023-03-08T08:35:51.158Z,2.53
2023-03-08T08:39:53.226Z,2.40
2023-03-08T08:43:59.014Z,2.63
2023-03-08T08:48:01.162Z,2.67
2023-03-08T08:52:03.564Z,2.55
2023-03-08T08:56:26.567Z,2.07
2023-03-08T09:00:33.582Z,2.15
2023-03-08T09:04:35.689Z,2.07
2023-03-08T09:08:38.147Z,2.36
2023-03-08T09:12:41.239Z,2.87
2023-03-08T09:16:43.342Z,2.86
2023-03-08T09:20:45.511Z,2.70
2023-03-08T09:24:49.305Z,2.67
2023-03-08T09:28:51.301Z,2.23
2023-03-08T09:32:53.438Z,1.98
2023-03-08T09:36:55.541Z,1.98
2023-03-08T09:41:13.348Z,1.51
2023-03-08T09:45:23.522Z,2.06
2023-03-08T09:49:30.596Z,2.26
2023-03-08T09:53:39.540Z,2.01
2023-03-08T09:57:49.882Z,2.11
2023-03-08T10:02:35.133Z,2.04
2023-03-08T10:06:47.783Z,2.25
2023-03-08T10:11:05.186Z,2.33
2023-03-08T10:15:20.325Z,2.60
2023-03-08T10:19:33.046Z,2.64
2023-03-08T10:23:36.909Z,2.59
2023-03-08T10:27:39.188Z,2.88
2023-03-08T10:31:44.329Z,2.85
2023-03-08T10:36:12.638Z,2.88
2023-03-08T10:40:20.484Z,3.40
2023-03-08T10:44:40.721Z,2.87
2023-03-08T10:48:43.071Z,3.23
2023-03-08T10:52:47.116Z,3.45
2023-03-08T10:56:59.110Z,3.78
2023-03-08T11:01:05.213Z,3.93
2023-03-08T11:05:23.038Z,4.21
2023-03-08T11:09:27.882Z,3.77
2023-03-08T11:13:33.477Z,3.40
2023-03-08T11:17:39.441Z,4.09
2023-03-08T11:22:23.834Z,4.49
2023-03-08T11:26:58.687Z,4.79
2023-03-08T11:31:19.103Z,4.97
2023-03-08T11:36:00.118Z,5.22
2023-03-08T11:40:23.908Z,4.59
2023-03-08T11:44:41.810Z,4.22
2023-03-08T11:49:01.294Z,3.76
2023-03-08T11:53:22.791Z,4.18
2023-03-08T11:57:29.027Z,4.21
2023-03-08T12:01:51.363Z,4.68
2023-03-08T12:05:57.108Z,4.71
2023-03-08T12:10:25.308Z,4.80
2023-03-08T12:14:33.029Z,4.36
2023-03-08T12:18:46.684Z,4.47
2023-03-08T12:23:06.669Z,4.38
2023-03-08T12:27:20.684Z,4.54
2023-03-08T12:31:29.935Z,4.55
2023-03-08T12:35:37.887Z,4.60
2023-03-08T12:39:40.508Z,4.13
2023-03-08T12:43:43.241Z,4.15
2023-03-08T12:48:08.778Z,4.82
2023-03-08T12:52:20.275Z,4.88
2023-03-08T12:56:31.269Z,4.85
2023-03-08T13:00:36.604Z,4.73
2023-03-08T13:04:42.159Z,4.16
2023-03-08T13:08:53.882Z,5.04
2023-03-08T13:13:06.765Z,4.72
2023-03-08T13:17:30.338Z,4.92
2023-03-08T13:21:35.632Z,4.53
2023-03-08T13:25:56.105Z,4.76
2023-03-08T13:30:02.944Z,4.82
2023-03-08T13:34:27.947Z,4.99
2023-03-08T13:38:36.058Z,4.93
2023-03-08T13:42:52.290Z,5.13
2023-03-08T13:46:56.883Z,5.19
2023-03-08T13:50:59.661Z,4.79
2023-03-08T13:55:06.131Z,4.54
2023-03-08T13:59:18.757Z,4.28
2023-03-08T14:03:20.976Z,4.54
2023-03-08T14:07:26.140Z,4.76
2023-03-08T14:11:30.995Z,4.76
2023-03-08T14:15:37.779Z,4.94
2023-03-08T14:19:40.541Z,5.22
2023-03-08T14:23:47.937Z,5.39
2023-03-08T14:27:50.340Z,4.87
2023-03-08T14:31:54.197Z,4.51
2023-03-08T14:36:00.018Z,4.18
2023-03-08T14:40:19.354Z,4.20
2023-03-08T14:44:26.833Z,4.08
2023-03-08T14:48:37.097Z,4.20
2023-03-08T14:52:46.645Z,4.21
2023-03-08T14:56:50.083Z,4.23
2023-03-08T15:00:57.186Z,4.12
2023-03-08T15:05:00.151Z,4.03
2023-03-08T15:09:03.962Z,3.78
2023-03-08T15:13:21.218Z,3.81
2023-03-08T15:17:24.103Z,3.69
2023-03-08T15:21:29.306Z,3.67
2023-03-08T15:25:35.220Z,3.71
2023-03-08T15:29:38.376Z,3.69
2023-03-08T15:33:40.419Z,3.52
2023-03-08T15:37:43.862Z,3.44
2023-03-08T15:41:47.231Z,3.37
2023-03-08T15:45:49.324Z,3.36
2023-03-08T15:49:51.543Z,3.32
2023-03-08T15:53:53.559Z,3.17
2023-03-08T15:57:56.106Z,2.94
2023-03-08T16:01:58.224Z,2.91
2023-03-08T16:06:01.333Z,2.96
2023-03-08T16:10:05.369Z,2.98
2023-03-08T16:14:07.688Z,2.68
2023-03-08T16:18:09.907Z,2.83
2023-03-08T16:22:12.079Z,2.84
2023-03-08T16:26:17.527Z,2.70
2023-03-08T16:30:20.089Z,2.50
2023-03-08T16:34:22.186Z,2.47
2023-03-08T16:38:24.477Z,2.54
2023-03-08T16:42:26.436Z,2.60
2023-03-08T16:46:29.207Z,2.39
2023-03-08T16:50:31.220Z,2.36
2023-03-08T16:54:33.482Z,2.71
2023-03-08T16:58:35.472Z,2.38
2023-03-08T17:02:37.681Z,2.53
2023-03-08T17:06:39.915Z,2.60
2023-03-08T17:10:44.132Z,2.37
2023-03-08T17:14:46.305Z,2.49
2023-03-08T17:18:49.426Z,2.62
2023-03-08T17:22:51.384Z,2.58
2023-03-08T17:26:53.727Z,2.46
2023-03-08T17:30:55.851Z,2.38
2023-03-08T17:34:58.245Z,2.34
2023-03-08T17:39:00.599Z,2.22
2023-03-08T17:43:02.929Z,2.07
2023-03-08T17:47:05.085Z,2.20
2023-03-08T17:51:09.946Z,2.10
2023-03-08T17:55:12.541Z,2.01
2023-03-08T17:59:16.724Z,2.02
2023-03-08T18:03:19.211Z,1.93
2023-03-08T18:07:21.611Z,1.79
2023-03-08T18:11:24.150Z,1.90
2023-03-08T18:15:26.708Z,1.73
2023-03-08T18:19:28.980Z,1.61
2023-03-08T18:23:31.800Z,1.63
2023-03-08T18:27:33.728Z,1.64
2023-03-08T18:31:37.305Z,1.56
2023-03-08T18:35:39.435Z,1.50
2023-03-08T18:39:41.773Z,1.06
2023-03-08T18:43:44.099Z,1.18
2023-03-08T18:47:50.079Z,1.05
2023-03-08T18:51:52.318Z,0.88
2023-03-08T18:55:56.801Z,0.85
2023-03-08T18:59:58.749Z,0.70
2023-03-08T19:04:07.004Z,0.62
2023-03-08T19:08:09.287Z,0.61
2023-03-08T19:12:12.609Z,0.55
2023-03-08T19:16:23.322Z,0.45
2023-03-08T19:20:26.574Z,0.37
2023-03-08T19:24:28.756Z,0.49
2023-03-08T19:28:30.765Z,0.49
2023-03-08T19:32:32.503Z,0.45
2023-03-08T19:36:37.831Z,0.49
2023-03-08T19:40:43.679Z,0.47
2023-03-08T19:44:50.490Z,0.65
2023-03-08T19:48:52.692Z,0.60
2023-03-08T19:52:54.636Z,0.56
2023-03-08T19:56:57.647Z,0.61
2023-03-08T20:01:08.570Z,0.52
2023-03-08T20:05:10.589Z,0.45
2023-03-08T20:09:14.794Z,0.51
2023-03-08T20:13:16.736Z,0.35
2023-03-08T20:17:18.766Z,0.55
2023-03-08T20:21:20.873Z,0.67
2023-03-08T20:25:23.130Z,0.78
2023-03-08T20:29:25.036Z,0.77
2023-03-08T20:33:27.058Z,0.79
2023-03-08T20:37:28.970Z,0.84
2023-03-08T20:41:31.110Z,0.79
2023-03-08T20:45:33.147Z,0.78
2023-03-08T20:49:35.178Z,0.73
2023-03-08T20:53:37.447Z,0.64
2023-03-08T20:57:39.501Z,0.65
2023-03-08T21:01:43.113Z,0.65
2023-03-08T21:05:45.257Z,0.65
2023-03-08T21:09:47.240Z,0.59
2023-03-08T21:13:50.659Z,0.66
2023-03-08T21:17:52.712Z,0.59
2023-03-08T21:21:54.805Z,0.55
2023-03-08T21:26:00.101Z,0.52
2023-03-08T21:30:03.200Z,0.57
2023-03-08T21:34:06.427Z,0.57
2023-03-08T21:38:09.155Z,0.53
2023-03-08T21:42:10.887Z,0.56
2023-03-08T21:46:13.070Z,0.48
2023-03-08T21:50:15.243Z,0.45
2023-03-08T21:54:17.589Z,0.46
2023-03-08T21:58:19.675Z,0.45
2023-03-08T22:02:21.812Z,0.41
2023-03-08T22:06:24.254Z,0.45
2023-03-08T22:10:26.280Z,0.34
2023-03-08T22:14:28.782Z,0.27
2023-03-08T22:18:32.285Z,0.32
2023-03-08T22:22:34.277Z,0.31
2023-03-08T22:26:36.505Z,0.41
2023-03-08T22:30:41.245Z,0.38
2023-03-08T22:34:43.233Z,0.44
2023-03-08T22:38:45.404Z,0.38
2023-03-08T22:42:47.526Z,0.37
2023-03-08T22:46:49.482Z,0.39
2023-03-08T22:51:04.738Z,0.44
2023-03-08T22:55:12.376Z,0.44
2023-03-08T22:59:15.112Z,0.48
2023-03-08T23:03:17.223Z,0.44
2023-03-08T23:07:19.242Z,0.46
2023-03-08T23:11:21.554Z,0.46
2023-03-08T23:15:23.823Z,0.44
2023-03-08T23:19:26.420Z,0.46
2023-03-08T23:23:28.567Z,0.44
2023-03-08T23:27:31.182Z,0.39
2023-03-08T23:31:35.594Z,0.41
2023-03-08T23:35:37.779Z,0.45
2023-03-08T23:39:40.100Z,0.32
2023-03-08T23:43:42.887Z,0.26
2023-03-08T23:47:44.955Z,0.55
2023-03-08T23:51:47.058Z,0.48
2023-03-08T23:55:49.076Z,0.50
2023-03-08T23:59:51.229Z,0.49
